Time;durP1;ratioP1;P1;durP2;ratioP2;P2;SDS_P1;SDS_P2;PMS_P1;PMS_P2;Temp;Humidity;BMP_temperature;BMP_pressure;BME280_temperature;BME280_humidity;BME280_pressure;Samples;Min_cycle;Max_cycle;Signal;HPM_P1;HPM_P2
2022/07/22 00:01:01;;;;;;;0.10;0.10;;;;;;;;;;6192951;23;20346;-86
2022/07/22 00:03:27;;;;;;;0.10;0.10;;;;;;;;;;6193029;23;20016;-86
2022/07/22 00:05:53;;;;;;;0.10;0.10;;;;;;;;;;6218134;23;20023;-87
2022/07/22 00:08:19;;;;;;;0.10;0.10;;;;;;;;;;6217766;23;20012;-87
2022/07/22 00:10:45;;;;;;;0.10;0.10;;;;;;;;;;6217992;23;20044;-87
2022/07/22 00:13:11;;;;;;;0.10;0.10;;;;;;;;;;6192720;23;20081;-87
2022/07/22 00:15:37;;;;;;;0.10;0.10;;;;;;;;;;6217766;23;20096;-88
2022/07/22 00:18:03;;;;;;;0.10;0.10;;;;;;;;;;6192859;23;20016;-89
2022/07/22 00:20:29;;;;;;;0.10;0.10;;;;;;;;;;6217638;23;20016;-88
2022/07/22 00:22:55;;;;;;;0.10;0.10;;;;;;;;;;6192932;23;20019;-89
2022/07/22 00:25:21;;;;;;;0.10;0.10;;;;;;;;;;6217927;23;20016;-89
2022/07/22 00:27:47;;;;;;;0.10;0.10;;;;;;;;;;6193034;23;20341;-87
2022/07/22 00:30:13;;;;;;;0.10;0.10;;;;;;;;;;6193103;23;20341;-87
2022/07/22 00:32:39;;;;;;;0.10;0.10;;;;;;;;;;6192842;23;20461;-86
2022/07/22 00:35:05;;;;;;;0.10;0.10;;;;;;;;;;6192733;23;20012;-86
2022/07/22 00:37:32;;;;;;;0.10;0.10;;;;;;;;;;6217890;23;20533;-86
2022/07/22 00:39:58;;;;;;;0.10;0.10;;;;;;;;;;6192502;23;20047;-86
2022/07/22 00:42:24;;;;;;;0.10;0.10;;;;;;;;;;6192755;23;20369;-86
2022/07/22 00:44:50;;;;;;;0.10;0.10;;;;;;;;;;6192837;23;20023;-87
2022/07/22 00:47:16;;;;;;;0.10;0.10;;;;;;;;;;6192852;23;20012;-87
2022/07/22 00:49:42;;;;;;;0.10;0.10;;;;;;;;;;6217401;23;20016;-87
2022/07/22 00:52:08;;;;;;;0.10;0.10;;;;;;;;;;6192638;23;20008;-86
2022/07/22 00:54:34;;;;;;;0.20;0.20;;;;;;;;;;6192733;23;20012;-87
2022/07/22 00:57:00;;;;;;;0.20;0.20;;;;;;;;;;6192758;23;20016;-86
2022/07/22 00:59:26;;;;;;;0.10;0.10;;;;;;;;;;6192600;23;20334;-86
2022/07/22 01:01:52;;;;;;;0.10;0.10;;;;;;;;;;6217819;23;20024;-86
2022/07/22 01:04:18;;;;;;;0.10;0.10;;;;;;;;;;6218020;23;20015;-86
2022/07/22 01:06:44;;;;;;;0.10;0.10;;;;;;;;;;6217445;23;20044;-87
2022/07/22 01:09:11;;;;;;;0.10;0.10;;;;;;;;;;6217369;23;20322;-86
2022/07/22 01:11:36;;;;;;;0.10;0.10;;;;;;;;;;6193109;23;20035;-88
2022/07/22 01:14:02;;;;;;;0.10;0.10;;;;;;;;;;6192653;23;20271;-89
2022/07/22 01:16:28;;;;;;;0.20;0.20;;;;;;;;;;6192682;23;20009;-89
2022/07/22 01:18:54;;;;;;;0.10;0.10;;;;;;;;;;6192516;23;20354;-89
2022/07/22 01:21:21;;;;;;;0.10;0.10;;;;;;;;;;6192768;23;20023;-89
2022/07/22 01:23:47;;;;;;;0.10;0.10;;;;;;;;;;6193595;23;20035;-89
2022/07/22 01:26:13;;;;;;;0.10;0.10;;;;;;;;;;6194484;23;20016;-89
2022/07/22 01:28:39;;;;;;;0.10;0.10;;;;;;;;;;6194720;23;20024;-87
2022/07/22 01:31:05;;;;;;;0.10;0.10;;;;;;;;;;6194169;23;20013;-87
2022/07/22 01:33:31;;;;;;;0.10;0.10;;;;;;;;;;6219266;23;20008;-87
2022/07/22 01:35:57;;;;;;;0.10;0.10;;;;;;;;;;6194399;23;20018;-87
2022/07/22 01:38:23;;;;;;;0.10;0.10;;;;;;;;;;6219156;23;20060;-86
2022/07/22 01:40:49;;;;;;;0.10;0.10;;;;;;;;;;6219196;23;20078;-86
2022/07/22 01:43:17;;;;;;;0.10;0.10;;;;;;;;;;6219772;23;20020;-86
2022/07/22 01:45:44;;;;;;;0.10;0.10;;;;;;;;;;6220037;23;20016;-87
2022/07/22 01:48:10;;;;;;;0.10;0.10;;;;;;;;;;6194327;23;20069;-86
2022/07/22 01:50:36;;;;;;;0.20;0.20;;;;;;;;;;6219010;23;20315;-86
2022/07/22 01:53:02;;;;;;;0.10;0.10;;;;;;;;;;6194200;23;20512;-86
2022/07/22 01:55:28;;;;;;;0.10;0.10;;;;;;;;;;6194308;23;20066;-89
2022/07/22 01:57:54;;;;;;;0.10;0.10;;;;;;;;;;6194112;23;20086;-89
2022/07/22 02:00:20;;;;;;;0.10;0.10;;;;;;;;;;6194212;23;20337;-90
2022/07/22 02:02:46;;;;;;;0.15;0.15;;;;;;;;;;6194055;23;20016;-90
2022/07/22 02:05:12;;;;;;;0.10;0.10;;;;;;;;;;6194394;23;20019;-90
2022/07/22 02:07:38;;;;;;;0.10;0.10;;;;;;;;;;6194094;23;20098;-90
2022/07/22 02:10:05;;;;;;;0.10;0.10;;;;;;;;;;6193993;23;20102;-89
2022/07/22 02:12:31;;;;;;;0.10;0.10;;;;;;;;;;6193943;23;20385;-89
2022/07/22 02:14:57;;;;;;;0.10;0.10;;;;;;;;;;6193848;23;20012;-90
2022/07/22 02:17:23;;;;;;;0.10;0.10;;;;;;;;;;6194133;23;20012;-89
2022/07/22 02:19:50;;;;;;;0.10;0.10;;;;;;;;;;6193797;23;20020;-89
2022/07/22 02:22:16;;;;;;;0.10;0.10;;;;;;;;;;6193957;23;20016;-90
2022/07/22 02:24:42;;;;;;;0.10;0.10;;;;;;;;;;6194118;23;20023;-90
2022/07/22 02:27:14;;;;;;;0.10;0.10;;;;;;;;;;6194513;23;20016;-88
2022/07/22 02:29:40;;;;;;;0.10;0.10;;;;;;;;;;6222112;23;20070;-89
2022/07/22 02:32:06;;;;;;;0.10;0.10;;;;;;;;;;6194346;23;20016;-89
2022/07/22 02:34:32;;;;;;;0.10;0.10;;;;;;;;;;6193805;23;20380;-88
2022/07/22 02:36:58;;;;;;;0.10;0.10;;;;;;;;;;6218357;23;20012;-88
2022/07/22 02:39:24;;;;;;;0.10;0.10;;;;;;;;;;6193570;23;20038;-88
2022/07/22 02:41:50;;;;;;;0.10;0.10;;;;;;;;;;6219102;23;20020;-88
2022/07/22 02:44:16;;;;;;;0.10;0.10;;;;;;;;;;6219059;23;20509;-88
2022/07/22 02:46:42;;;;;;;0.10;0.10;;;;;;;;;;6193749;23;20012;-88
2022/07/22 02:49:08;;;;;;;0.10;0.10;;;;;;;;;;6193554;23;20023;-88
2022/07/22 02:51:34;;;;;;;0.10;0.10;;;;;;;;;;6193480;23;20091;-88
2022/07/22 02:54:00;;;;;;;0.10;0.10;;;;;;;;;;6218524;23;20341;-89
2022/07/22 02:56:26;;;;;;;0.10;0.10;;;;;;;;;;6218654;23;20042;-89
2022/07/22 02:58:52;;;;;;;0.10;0.10;;;;;;;;;;6218448;23;20016;-88
2022/07/22 03:01:19;;;;;;;0.10;0.10;;;;;;;;;;6193626;23;20020;-88
2022/07/22 03:03:45;;;;;;;0.10;0.10;;;;;;;;;;6193434;23;20012;-88
2022/07/22 03:06:11;;;;;;;0.20;0.20;;;;;;;;;;6218222;23;20066;-88
2022/07/22 03:08:38;;;;;;;0.10;0.10;;;;;;;;;;6193336;23;20012;-88
2022/07/22 03:11:04;;;;;;;0.10;0.10;;;;;;;;;;6193201;23;20090;-88
2022/07/22 03:13:30;;;;;;;0.10;0.10;;;;;;;;;;6193303;23;20019;-87
2022/07/22 03:15:56;;;;;;;0.10;0.10;;;;;;;;;;6193571;23;20005;-88
2022/07/22 03:18:22;;;;;;;0.10;0.10;;;;;;;;;;6193176;23;20019;-88
2022/07/22 03:20:48;;;;;;;0.10;0.10;;;;;;;;;;6193313;23;20350;-87
2022/07/22 03:23:14;;;;;;;0.10;0.10;;;;;;;;;;6193231;23;20034;-88
2022/07/22 03:25:40;;;;;;;0.10;0.10;;;;;;;;;;6193140;23;20020;-88
2022/07/22 03:28:06;;;;;;;0.20;0.20;;;;;;;;;;6218007;23;20070;-88
2022/07/22 03:30:32;;;;;;;0.10;0.10;;;;;;;;;;6194306;23;20111;-89
2022/07/22 03:32:58;;;;;;;0.10;0.10;;;;;;;;;;6218514;23;20023;-88
2022/07/22 03:35:24;;;;;;;0.30;0.30;;;;;;;;;;6193251;23;20410;-88
2022/07/22 03:37:50;;;;;;;0.10;0.10;;;;;;;;;;6193186;23;20066;-88
2022/07/22 03:40:16;;;;;;;0.10;0.10;;;;;;;;;;6217837;23;20020;-88
2022/07/22 03:42:42;;;;;;;0.10;0.10;;;;;;;;;;6217929;23;20027;-88
2022/07/22 03:45:09;;;;;;;0.10;0.10;;;;;;;;;;6193220;23;20020;-89
2022/07/22 03:47:35;;;;;;;0.10;0.10;;;;;;;;;;6192989;23;20012;-89
2022/07/22 03:50:01;;;;;;;0.10;0.10;;;;;;;;;;6192946;23;20461;-88
2022/07/22 03:52:28;;;;;;;0.10;0.10;;;;;;;;;;6218180;23;20014;-88
2022/07/22 03:54:54;;;;;;;0.10;0.10;;;;;;;;;;6193026;23;20019;-88
2022/07/22 03:57:20;;;;;;;0.10;0.10;;;;;;;;;;6193160;23;20008;-88
2022/07/22 03:59:46;;;;;;;0.10;0.10;;;;;;;;;;6192939;23;20091;-88
2022/07/22 04:02:12;;;;;;;0.10;0.10;;;;;;;;;;6217913;23;20008;-88
2022/07/22 04:04:38;;;;;;;0.10;0.10;;;;;;;;;;6193000;23;20031;-88
2022/07/22 04:07:04;;;;;;;0.10;0.10;;;;;;;;;;6192955;23;20346;-88
2022/07/22 04:09:30;;;;;;;0.10;0.10;;;;;;;;;;6192870;23;20009;-88
2022/07/22 04:11:56;;;;;;;0.20;0.20;;;;;;;;;;6193327;23;20040;-89
2022/07/22 04:14:22;;;;;;;0.10;0.10;;;;;;;;;;6217893;23;20359;-88
2022/07/22 04:16:48;;;;;;;0.10;0.10;;;;;;;;;;6192863;23;20040;-87
2022/07/22 04:19:14;;;;;;;0.10;0.10;;;;;;;;;;6217770;23;20045;-89
2022/07/22 04:21:40;;;;;;;0.10;0.10;;;;;;;;;;6193278;23;20065;-88
2022/07/22 04:24:06;;;;;;;0.10;0.10;;;;;;;;;;6218001;23;20104;-88
2022/07/22 04:26:32;;;;;;;0.20;0.20;;;;;;;;;;6193003;23;20023;-90
2022/07/22 04:28:58;;;;;;;0.10;0.10;;;;;;;;;;6217882;23;20087;-89
2022/07/22 04:31:24;;;;;;;0.10;0.10;;;;;;;;;;6192907;23;20043;-87
2022/07/22 04:33:50;;;;;;;0.10;0.10;;;;;;;;;;6217713;23;20039;-87
2022/07/22 04:36:16;;;;;;;0.10;0.10;;;;;;;;;;6217832;23;20016;-87
2022/07/22 04:38:42;;;;;;;0.10;0.10;;;;;;;;;;6217572;23;20013;-88
2022/07/22 04:41:08;;;;;;;0.10;0.10;;;;;;;;;;6217509;23;20399;-87
2022/07/22 04:43:34;;;;;;;0.10;0.10;;;;;;;;;;6192759;23;20019;-88
2022/07/22 04:46:00;;;;;;;0.10;0.10;;;;;;;;;;6193029;23;20333;-88
2022/07/22 04:48:26;;;;;;;0.10;0.10;;;;;;;;;;6192717;23;20012;-89
2022/07/22 04:50:52;;;;;;;0.10;0.10;;;;;;;;;;6192764;23;20092;-89
2022/07/22 04:53:18;;;;;;;0.10;0.10;;;;;;;;;;6217654;23;20012;-88
2022/07/22 04:55:44;;;;;;;0.10;0.10;;;;;;;;;;6217565;23;20442;-88
2022/07/22 04:58:10;;;;;;;0.10;0.10;;;;;;;;;;6192661;23;20141;-87
2022/07/22 05:00:36;;;;;;;0.10;0.10;;;;;;;;;;6194631;23;20020;-88
2022/07/22 05:03:02;;;;;;;0.10;0.10;;;;;;;;;;6194894;23;20253;-90
2022/07/22 05:05:27;;;;;;;0.10;0.10;;;;;;;;;;6194590;23;20315;-88
2022/07/22 05:07:53;;;;;;;0.10;0.10;;;;;;;;;;6194490;23;20012;-88
2022/07/22 05:10:19;;;;;;;0.10;0.10;;;;;;;;;;6194462;23;20043;-88
2022/07/22 05:12:45;;;;;;;0.10;0.10;;;;;;;;;;6194550;23;20066;-89
2022/07/22 05:15:11;;;;;;;0.10;0.10;;;;;;;;;;6194547;23;20062;-89
2022/07/22 05:17:37;;;;;;;0.10;0.10;;;;;;;;;;6219421;23;20453;-89
2022/07/22 05:20:04;;;;;;;0.10;0.10;;;;;;;;;;6194655;23;20016;-89
2022/07/22 05:22:30;;;;;;;0.10;0.10;;;;;;;;;;6219419;23;20338;-89
2022/07/22 05:24:56;;;;;;;0.10;0.10;;;;;;;;;;6219461;23;20022;-89
2022/07/22 05:27:22;;;;;;;0.10;0.10;;;;;;;;;;6194455;23;20052;-89
2022/07/22 05:29:48;;;;;;;0.10;0.10;;;;;;;;;;6219339;23;20016;-88
2022/07/22 05:32:14;;;;;;;0.10;0.10;;;;;;;;;;6219266;23;20012;-88
2022/07/22 05:34:40;;;;;;;0.10;0.10;;;;;;;;;;6194574;23;20438;-89
2022/07/22 05:37:06;;;;;;;0.10;0.10;;;;;;;;;;6194311;23;20008;-89
2022/07/22 05:39:32;;;;;;;0.10;0.10;;;;;;;;;;6194541;23;20437;-89
2022/07/22 05:41:58;;;;;;;0.10;0.10;;;;;;;;;;6194330;23;20008;-89
2022/07/22 05:44:24;;;;;;;0.10;0.10;;;;;;;;;;6194288;23;20008;-89
2022/07/22 05:46:50;;;;;;;0.10;0.10;;;;;;;;;;6194227;23;20442;-88
2022/07/22 05:49:16;;;;;;;0.10;0.10;;;;;;;;;;6219092;23;20012;-88
2022/07/22 05:51:42;;;;;;;0.10;0.10;;;;;;;;;;6193974;23;20365;-89
2022/07/22 05:54:08;;;;;;;0.10;0.10;;;;;;;;;;6194293;23;20012;-89
2022/07/22 05:56:34;;;;;;;0.10;0.10;;;;;;;;;;6194375;23;20019;-88
2022/07/22 05:59:00;;;;;;;0.10;0.10;;;;;;;;;;6194022;23;20055;-88
2022/07/22 06:01:26;;;;;;;0.20;0.20;;;;;;;;;;6219474;23;20052;-88
2022/07/22 06:03:52;;;;;;;0.10;0.10;;;;;;;;;;6194097;23;20012;-87
2022/07/22 06:06:18;;;;;;;0.10;0.10;;;;;;;;;;6218738;23;20016;-89
2022/07/22 06:08:44;;;;;;;0.10;0.10;;;;;;;;;;6193884;23;20016;-90
2022/07/22 06:11:10;;;;;;;0.10;0.10;;;;;;;;;;6217894;23;20043;-89
2022/07/22 06:13:38;;;;;;;0.10;0.10;;;;;;;;;;6194006;23;20039;-89
2022/07/22 06:16:04;;;;;;;0.10;0.10;;;;;;;;;;6218937;23;20385;-88
2022/07/22 06:18:30;;;;;;;0.10;0.10;;;;;;;;;;6193828;23;20061;-88
2022/07/22 06:20:56;;;;;;;0.10;0.10;;;;;;;;;;6193853;23;20050;-88
2022/07/22 06:23:23;;;;;;;0.10;0.10;;;;;;;;;;6193893;23;20090;-89
2022/07/22 06:25:49;;;;;;;0.10;0.10;;;;;;;;;;6193881;23;20504;-88
2022/07/22 06:28:15;;;;;;;0.10;0.10;;;;;;;;;;6193756;23;20019;-88
2022/07/22 06:30:41;;;;;;;0.10;0.10;;;;;;;;;;6193802;23;20335;-89
2022/07/22 06:33:08;;;;;;;0.10;0.10;;;;;;;;;;6219241;23;20050;-88
2022/07/22 06:35:34;;;;;;;0.10;0.10;;;;;;;;;;6218682;23;20016;-89
2022/07/22 06:38:00;;;;;;;0.10;0.10;;;;;;;;;;6193611;23;20008;-89
2022/07/22 06:40:26;;;;;;;0.10;0.10;;;;;;;;;;6193506;23;20380;-87
2022/07/22 06:42:52;;;;;;;0.10;0.10;;;;;;;;;;6218878;23;20153;-88
2022/07/22 06:45:18;;;;;;;0.10;0.10;;;;;;;;;;6193757;23;20008;-88
2022/07/22 06:47:44;;;;;;;0.10;0.10;;;;;;;;;;6193605;23;20067;-88
2022/07/22 06:50:10;;;;;;;0.10;0.10;;;;;;;;;;6193613;23;20016;-88
2022/07/22 06:52:38;;;;;;;0.10;0.10;;;;;;;;;;6193730;23;20111;-87
2022/07/22 06:55:05;;;;;;;0.10;0.10;;;;;;;;;;6219134;23;20012;-89
2022/07/22 06:57:31;;;;;;;0.10;0.10;;;;;;;;;;6193548;23;20438;-87
2022/07/22 06:59:57;;;;;;;0.10;0.10;;;;;;;;;;6193392;23;20023;-88
2022/07/22 07:02:23;;;;;;;0.10;0.10;;;;;;;;;;6218307;23;20069;-88
2022/07/22 07:04:49;;;;;;;0.10;0.10;;;;;;;;;;6193566;23;20063;-88
2022/07/22 07:07:15;;;;;;;0.10;0.10;;;;;;;;;;6193622;23;20214;-88
2022/07/22 07:09:41;;;;;;;0.10;0.10;;;;;;;;;;6193431;23;20012;-88
2022/07/22 07:12:07;;;;;;;0.10;0.10;;;;;;;;;;6218602;23;20057;-89
2022/07/22 07:14:33;;;;;;;0.10;0.10;;;;;;;;;;6193444;23;20012;-88
2022/07/22 07:16:59;;;;;;;0.10;0.10;;;;;;;;;;6193129;23;20019;-88
2022/07/22 07:19:24;;;;;;;0.10;0.10;;;;;;;;;;6193125;23;20023;-87
2022/07/22 07:21:50;;;;;;;0.10;0.10;;;;;;;;;;6193874;23;20066;-88
2022/07/22 07:24:16;;;;;;;0.10;0.10;;;;;;;;;;6219601;23;20016;-88
2022/07/22 07:26:42;;;;;;;0.10;0.10;;;;;;;;;;6194409;23;20452;-87
2022/07/22 07:29:08;;;;;;;0.10;0.10;;;;;;;;;;6194312;23;20092;-88
2022/07/22 07:31:36;;;;;;;0.10;0.10;;;;;;;;;;6218380;23;20341;-90
2022/07/22 07:34:02;;;;;;;0.10;0.10;;;;;;;;;;6218307;23;20464;-87
2022/07/22 07:36:27;;;;;;;0.10;0.10;;;;;;;;;;6219206;23;20012;-87
2022/07/22 07:38:53;;;;;;;0.10;0.10;;;;;;;;;;6193486;23;20008;-88
2022/07/22 07:41:20;;;;;;;0.10;0.10;;;;;;;;;;6193116;23;20024;-87
2022/07/22 07:43:45;;;;;;;0.10;0.10;;;;;;;;;;6193378;23;20446;-87
2022/07/22 07:46:11;;;;;;;0.10;0.10;;;;;;;;;;6218208;23;20016;-88
2022/07/22 07:48:37;;;;;;;0.25;0.17;;;;;;;;;;6193271;23;20371;-86
2022/07/22 07:51:04;;;;;;;0.10;0.10;;;;;;;;;;6218255;23;20603;-85
2022/07/22 07:53:30;;;;;;;0.10;0.10;;;;;;;;;;6193523;23;20042;-86
2022/07/22 07:55:56;;;;;;;0.10;0.10;;;;;;;;;;6193371;23;20091;-87
2022/07/22 07:58:22;;;;;;;0.10;0.10;;;;;;;;;;6193335;23;20031;-87
2022/07/22 08:00:48;;;;;;;0.10;0.10;;;;;;;;;;6193188;23;20082;-86
2022/07/22 08:03:14;;;;;;;0.10;0.10;;;;;;;;;;6193236;23;20445;-86
2022/07/22 08:05:40;;;;;;;0.10;0.10;;;;;;;;;;6193635;23;20023;-86
2022/07/22 08:08:07;;;;;;;0.10;0.10;;;;;;;;;;6193578;23;20008;-86
2022/07/22 08:10:32;;;;;;;0.10;0.10;;;;;;;;;;6192980;23;20016;-86
2022/07/22 08:12:59;;;;;;;0.10;0.10;;;;;;;;;;6218446;23;20487;-86
2022/07/22 08:15:25;;;;;;;0.10;0.10;;;;;;;;;;6192896;23;20009;-87
2022/07/22 08:17:51;;;;;;;0.10;0.10;;;;;;;;;;6192959;23;20018;-87
2022/07/22 08:20:18;;;;;;;0.10;0.10;;;;;;;;;;6217597;23;20018;-84
2022/07/22 08:22:44;;;;;;;0.10;0.10;;;;;;;;;;6218026;23;20414;-87
2022/07/22 08:25:10;;;;;;;0.10;0.10;;;;;;;;;;6193080;23;20377;-86
2022/07/22 08:27:36;;;;;;;0.10;0.10;;;;;;;;;;6192649;23;20016;-86
2022/07/22 08:30:04;;;;;;;0.10;0.10;;;;;;;;;;6217389;23;20091;-86
2022/07/22 08:32:30;;;;;;;0.10;0.10;;;;;;;;;;6217685;23;20445;-87
2022/07/22 08:34:56;;;;;;;0.10;0.10;;;;;;;;;;6193223;23;20016;-86
2022/07/22 08:37:22;;;;;;;0.10;0.10;;;;;;;;;;6219248;23;20083;-87
2022/07/22 08:39:48;;;;;;;0.10;0.10;;;;;;;;;;6219340;23;20382;-86
2022/07/22 08:42:14;;;;;;;0.10;0.10;;;;;;;;;;6219681;23;20016;-86
2022/07/22 08:44:40;;;;;;;0.10;0.10;;;;;;;;;;6219325;23;20012;-86
2022/07/22 08:47:06;;;;;;;0.10;0.10;;;;;;;;;;6194626;23;20039;-86
2022/07/22 08:49:32;;;;;;;0.10;0.10;;;;;;;;;;6246730;23;20338;-84
2022/07/22 08:51:58;;;;;;;0.10;0.10;;;;;;;;;;6219549;23;20019;-85
2022/07/22 08:54:24;;;;;;;0.10;0.10;;;;;;;;;;6219573;23;20466;-85
2022/07/22 08:56:50;;;;;;;0.10;0.10;;;;;;;;;;6194865;23;20048;-86
2022/07/22 08:59:16;;;;;;;0.10;0.10;;;;;;;;;;6194509;23;20172;-84
2022/07/22 09:02:01;;;;;;;0.10;0.10;;;;;;;;;;6219841;23;20297;-85
2022/07/22 09:04:27;;;;;;;0.10;0.10;;;;;;;;;;6219465;23;20012;-85
2022/07/22 09:06:52;;;;;;;0.10;0.10;;;;;;;;;;6219515;23;20091;-85
2022/07/22 09:09:18;;;;;;;0.10;0.10;;;;;;;;;;6194469;23;20023;-86
2022/07/22 09:11:44;;;;;;;0.10;0.10;;;;;;;;;;6219532;23;20016;-86
2022/07/22 09:14:10;;;;;;;0.10;0.10;;;;;;;;;;6219476;23;20012;-86
2022/07/22 09:16:47;;;;;;;0.10;0.10;;;;;;;;;;6194586;23;20015;-85
2022/07/22 09:19:13;;;;;;;0.10;0.10;;;;;;;;;;6194611;23;20019;-86
2022/07/22 09:21:40;;;;;;;0.10;0.10;;;;;;;;;;6246511;23;20318;-85
2022/07/22 09:24:06;;;;;;;0.10;0.10;;;;;;;;;;6219227;23;20062;-85
2022/07/22 09:26:36;;;;;;;0.10;0.10;;;;;;;;;;6219299;23;20020;-85
2022/07/22 09:29:03;;;;;;;0.10;0.10;;;;;;;;;;6194392;23;20012;-86
2022/07/22 09:31:32;;;;;;;0.10;0.10;;;;;;;;;;6194181;23;20517;-86
2022/07/22 09:33:59;;;;;;;0.10;0.10;;;;;;;;;;6194159;23;20445;-86
2022/07/22 09:36:25;;;;;;;0.10;0.10;;;;;;;;;;6219025;23;20015;-87
2022/07/22 09:38:51;;;;;;;0.10;0.10;;;;;;;;;;6218975;23;20015;-87
2022/07/22 09:41:17;;;;;;;0.10;0.10;;;;;;;;;;6194255;23;20142;-87
2022/07/22 09:43:43;;;;;;;0.17;0.17;;;;;;;;;;6219438;23;20070;-86
2022/07/22 09:46:09;;;;;;;0.10;0.10;;;;;;;;;;6194304;23;20100;-85
2022/07/22 09:48:35;;;;;;;0.10;0.10;;;;;;;;;;6219046;23;20528;-88
2022/07/22 09:51:01;;;;;;;0.10;0.10;;;;;;;;;;6193989;23;20015;-87
2022/07/22 09:53:28;;;;;;;0.10;0.10;;;;;;;;;;6194089;23;20346;-87
2022/07/22 09:55:54;;;;;;;0.10;0.10;;;;;;;;;;6194433;23;20013;-88
2022/07/22 09:58:21;;;;;;;0.10;0.10;;;;;;;;;;6194220;23;20012;-87
2022/07/22 10:00:49;;;;;;;0.10;0.10;;;;;;;;;;6194259;23;20016;-87
2022/07/22 10:03:22;;;;;;;0.10;0.10;;;;;;;;;;6219160;23;20020;-87
2022/07/22 10:05:48;;;;;;;0.10;0.10;;;;;;;;;;6219282;23;20066;-87
2022/07/22 10:08:14;;;;;;;0.10;0.10;;;;;;;;;;6218858;23;20012;-87
2022/07/22 10:10:40;;;;;;;0.10;0.10;;;;;;;;;;6193918;23;20476;-87
2022/07/22 10:13:06;;;;;;;0.10;0.10;;;;;;;;;;6193992;23;20061;-87
2022/07/22 10:15:32;;;;;;;0.10;0.10;;;;;;;;;;6194033;23;20027;-86
2022/07/22 10:18:00;;;;;;;0.10;0.10;;;;;;;;;;6193988;23;20066;-86
2022/07/22 10:20:27;;;;;;;0.10;0.10;;;;;;;;;;6218659;23;20015;-87
2022/07/22 10:22:57;;;;;;;0.10;0.10;;;;;;;;;;6193867;23;20094;-86
2022/07/22 10:25:24;;;;;;;0.10;0.10;;;;;;;;;;6194041;23;20012;-86
2022/07/22 10:27:50;;;;;;;0.10;0.10;;;;;;;;;;6218579;23;20020;-87
2022/07/22 10:30:29;;;;;;;0.10;0.10;;;;;;;;;;6219207;23;20019;-87
2022/07/22 10:33:02;;;;;;;0.10;0.10;;;;;;;;;;6193723;23;20012;-86
2022/07/22 10:35:28;;;;;;;0.10;0.10;;;;;;;;;;6193839;23;20019;-87
2022/07/22 10:37:55;;;;;;;0.10;0.10;;;;;;;;;;6243928;23;20008;-86
2022/07/22 10:40:21;;;;;;;0.10;0.10;;;;;;;;;;6191992;23;20020;-85
2022/07/22 10:43:08;;;;;;;0.17;0.17;;;;;;;;;;6219312;23;20389;-85
2022/07/22 10:45:40;;;;;;;0.10;0.10;;;;;;;;;;6218342;23;20046;-88
2022/07/22 10:48:11;;;;;;;0.10;0.10;;;;;;;;;;6218500;23;20017;-86
2022/07/22 10:50:43;;;;;;;0.10;0.10;;;;;;;;;;6193533;23;20438;-88
2022/07/22 10:53:08;;;;;;;0.10;0.10;;;;;;;;;;6218644;23;20008;-89
2022/07/22 10:55:35;;;;;;;0.10;0.10;;;;;;;;;;6218503;23;20047;-88
2022/07/22 10:58:01;;;;;;;0.10;0.10;;;;;;;;;;6193093;23;20012;-87
2022/07/22 11:00:27;;;;;;;0.10;0.10;;;;;;;;;;6193508;23;20346;-87
2022/07/22 11:02:53;;;;;;;0.10;0.10;;;;;;;;;;6193544;23;20016;-86
2022/07/22 11:05:26;;;;;;;0.10;0.10;;;;;;;;;;6193575;23;20016;-87
2022/07/22 11:07:52;;;;;;;0.10;0.10;;;;;;;;;;6193397;23;20319;-86
2022/07/22 11:10:18;;;;;;;0.10;0.10;;;;;;;;;;6194166;23;20433;-86
2022/07/22 11:12:45;;;;;;;0.10;0.10;;;;;;;;;;6193105;23;20008;-84
2022/07/22 11:15:11;;;;;;;0.10;0.10;;;;;;;;;;6193355;23;20342;-84
2022/07/22 11:17:37;;;;;;;0.10;0.10;;;;;;;;;;6193230;23;20016;-84
2022/07/22 11:20:09;;;;;;;0.10;0.10;;;;;;;;;;6193245;23;20406;-84
2022/07/22 11:22:35;;;;;;;0.10;0.10;;;;;;;;;;6218269;23;20012;-84
2022/07/22 11:25:03;;;;;;;0.10;0.10;;;;;;;;;;6193166;23;20337;-84
2022/07/22 11:27:29;;;;;;;0.10;0.10;;;;;;;;;;6218626;23;20012;-84
2022/07/22 11:29:56;;;;;;;0.10;0.10;;;;;;;;;;6217948;23;20307;-85
2022/07/22 11:32:22;;;;;;;0.10;0.10;;;;;;;;;;6193484;23;20008;-85
2022/07/22 11:34:48;;;;;;;0.10;0.10;;;;;;;;;;6218295;23;20018;-85
2022/07/22 11:37:14;;;;;;;0.10;0.10;;;;;;;;;;6193199;23;20083;-85
2022/07/22 11:39:40;;;;;;;0.10;0.10;;;;;;;;;;6192773;23;20012;-85
2022/07/22 11:42:07;;;;;;;0.10;0.10;;;;;;;;;;6218094;23;20012;-83
2022/07/22 11:44:33;;;;;;;0.10;0.10;;;;;;;;;;6192942;23;20441;-84
2022/07/22 11:46:59;;;;;;;0.10;0.10;;;;;;;;;;6193123;23;20094;-84
2022/07/22 11:49:26;;;;;;;0.10;0.10;;;;;;;;;;6244989;23;20012;-85
2022/07/22 11:51:52;;;;;;;0.10;0.10;;;;;;;;;;6217900;23;20020;-89
2022/07/22 11:54:18;;;;;;;0.10;0.10;;;;;;;;;;6193192;23;20012;-88
2022/07/22 11:56:44;;;;;;;0.10;0.10;;;;;;;;;;6193221;23;20012;-84
2022/07/22 11:59:12;;;;;;;0.10;0.10;;;;;;;;;;6217797;23;20088;-86
2022/07/22 12:01:42;;;;;;;0.10;0.10;;;;;;;;;;6193011;23;20012;-93
2022/07/22 12:04:09;;;;;;;0.10;0.10;;;;;;;;;;6193629;23;20016;-90
2022/07/22 12:06:38;;;;;;;0.10;0.10;;;;;;;;;;6193667;23;20012;-87
2022/07/22 12:09:04;;;;;;;0.10;0.10;;;;;;;;;;6193018;23;20012;-86
2022/07/22 12:11:30;;;;;;;0.10;0.10;;;;;;;;;;6217759;23;20323;-85
2022/07/22 12:13:56;;;;;;;0.10;0.10;;;;;;;;;;6218358;23;20092;-86
2022/07/22 12:16:22;;;;;;;0.10;0.10;;;;;;;;;;6193016;23;20030;-86
2022/07/22 12:18:52;;;;;;;0.10;0.10;;;;;;;;;;6245030;23;20042;-84
2022/07/22 12:21:18;;;;;;;0.10;0.10;;;;;;;;;;6191468;23;20087;-88
2022/07/22 12:23:50;;;;;;;0.10;0.10;;;;;;;;;;6192834;23;20095;-86
2022/07/22 12:26:16;;;;;;;0.10;0.10;;;;;;;;;;6218005;23;20093;-87
2022/07/22 12:28:42;;;;;;;0.10;0.10;;;;;;;;;;6192910;23;20036;-84
2022/07/22 12:31:08;;;;;;;0.10;0.10;;;;;;;;;;6244286;23;20055;-84
2022/07/22 12:33:34;;;;;;;0.10;0.10;;;;;;;;;;6192747;23;20012;-83
2022/07/22 12:36:00;;;;;;;0.10;0.10;;;;;;;;;;6244470;23;20024;-84
2022/07/22 12:38:26;;;;;;;0.10;0.10;;;;;;;;;;6244703;23;20036;-83
2022/07/22 12:40:52;;;;;;;0.10;0.10;;;;;;;;;;6217813;23;20023;-84
2022/07/22 12:43:18;;;;;;;0.10;0.10;;;;;;;;;;6217801;23;20024;-83
2022/07/22 12:45:44;;;;;;;0.10;0.10;;;;;;;;;;6217884;23;20023;-83
2022/07/22 12:48:10;;;;;;;0.10;0.10;;;;;;;;;;6217578;23;20397;-85
2022/07/22 12:50:40;;;;;;;0.10;0.10;;;;;;;;;;6244636;23;20020;-86
2022/07/22 12:53:10;;;;;;;0.10;0.10;;;;;;;;;;6192664;23;20333;-85
2022/07/22 12:55:36;;;;;;;0.10;0.10;;;;;;;;;;6192876;23;20464;-85
2022/07/22 12:58:03;;;;;;;0.10;0.10;;;;;;;;;;6192581;23;20031;-85
2022/07/22 13:00:30;;;;;;;0.10;0.10;;;;;;;;;;6217512;23;20349;-85
2022/07/22 13:02:56;;;;;;;0.10;0.10;;;;;;;;;;6244092;23;20464;-85
2022/07/22 13:05:22;;;;;;;0.10;0.10;;;;;;;;;;6217552;23;20012;-85
2022/07/22 13:07:48;;;;;;;0.10;0.10;;;;;;;;;;6217972;23;20307;-86
2022/07/22 13:10:14;;;;;;;0.10;0.10;;;;;;;;;;6192426;23;20520;-85
2022/07/22 13:12:41;;;;;;;0.10;0.10;;;;;;;;;;6217408;23;20051;-85
2022/07/22 13:15:07;;;;;;;0.10;0.10;;;;;;;;;;6192571;23;20039;-84
2022/07/22 13:17:33;;;;;;;0.10;0.10;;;;;;;;;;6217288;23;20008;-84
2022/07/22 13:19:59;;;;;;;0.10;0.10;;;;;;;;;;6193094;23;20345;-84
2022/07/22 13:22:25;;;;;;;0.10;0.10;;;;;;;;;;6194503;23;20019;-84
2022/07/22 13:24:51;;;;;;;0.10;0.10;;;;;;;;;;6219463;23;20066;-84
2022/07/22 13:27:17;;;;;;;0.10;0.10;;;;;;;;;;6194594;23;20019;-84
2022/07/22 13:29:43;;;;;;;0.10;0.10;;;;;;;;;;6194396;23;20012;-84
2022/07/22 13:32:09;;;;;;;0.10;0.10;;;;;;;;;;6219063;23;20044;-84
2022/07/22 13:34:35;;;;;;;0.10;0.10;;;;;;;;;;6246049;23;20016;-84
2022/07/22 13:37:01;;;;;;;0.10;0.10;;;;;;;;;;6219209;23;20012;-84
2022/07/22 13:39:27;;;;;;;0.10;0.10;;;;;;;;;;6194043;23;20016;-84
2022/07/22 13:41:53;;;;;;;0.10;0.10;;;;;;;;;;6194399;23;20012;-85
2022/07/22 13:44:19;;;;;;;0.10;0.10;;;;;;;;;;6219203;23;20020;-85
2022/07/22 13:46:46;;;;;;;0.10;0.10;;;;;;;;;;6194159;23;20016;-84
2022/07/22 13:49:12;;;;;;;0.10;0.10;;;;;;;;;;6218933;23;20320;-85
2022/07/22 13:51:38;;;;;;;0.10;0.10;;;;;;;;;;6218958;23;20043;-85
2022/07/22 13:54:07;;;;;;;0.10;0.10;;;;;;;;;;6218971;23;20015;-84
2022/07/22 13:56:33;;;;;;;0.10;0.10;;;;;;;;;;6194589;23;20086;-84
2022/07/22 13:58:59;;;;;;;0.10;0.10;;;;;;;;;;6193985;23;20016;-87
2022/07/22 14:01:25;;;;;;;0.10;0.10;;;;;;;;;;6194005;23;20012;-84
2022/07/22 14:03:51;;;;;;;0.10;0.10;;;;;;;;;;6246309;23;20020;-84
2022/07/22 14:06:17;;;;;;;0.10;0.10;;;;;;;;;;6246136;23;20012;-83
2022/07/22 14:08:43;;;;;;;0.10;0.10;;;;;;;;;;6218808;23;20350;-83
2022/07/22 14:11:09;;;;;;;0.10;0.10;;;;;;;;;;6218693;23;20023;-84
2022/07/22 14:13:35;;;;;;;0.10;0.10;;;;;;;;;;6244275;23;20008;-83
2022/07/22 14:16:33;;;;;;;0.10;0.10;;;;;;;;;;6218940;23;20016;-83
2022/07/22 14:18:47;;;;;;;0.10;0.10;;;;;;;;;;6245541;23;20520;-83
2022/07/22 14:21:13;;;;;;;0.20;0.20;;;;;;;;;;6218836;23;20019;-84
2022/07/22 14:23:39;;;;;;;0.10;0.10;;;;;;;;;;6218811;23;20038;-84
2022/07/22 14:26:05;;;;;;;0.10;0.10;;;;;;;;;;6245943;23;20016;-84
2022/07/22 14:28:31;;;;;;;0.10;0.10;;;;;;;;;;6218654;23;20023;-84
2022/07/22 14:30:57;;;;;;;0.10;0.10;;;;;;;;;;6193526;23;20027;-84
2022/07/22 14:33:23;;;;;;;0.20;0.20;;;;;;;;;;6193739;23;20011;-84
2022/07/22 14:35:49;;;;;;;0.10;0.10;;;;;;;;;;6193963;23;20012;-84
2022/07/22 14:38:15;;;;;;;0.10;0.10;;;;;;;;;;6193795;23;20016;-84